EmailTwitter


Surface observations / Quebec / EGBB

Regions: Quebec | Canada | USA | Europe | France | UK | Elsewhere
Station
Display
Info & Location for EGBB | Help decoding METAR

Weather Conditions observed on 2017/05/24 at 20:50 UTC at BIRMINGHAM AIRPO, UK (EGBB)

Temperature: 17.0 Celsius.

Dewpoint: 16.0 Celsius.

Relative Humidity: 94%

Humidex: 22.

Winds: Variable at 4 km/h or 2 knots.

Mean Sea level Pressure: 102.50 kilopascals.

Coded METAR:

EGBB 242050Z VRB02KT CAVOK 17/16 Q1025=